| time (UTC) | temp F | wind direction | speed knots | gust knots | rain 1hr in | rain 24hr in | rain mn in | humidity % | barometer mb |
| 20260509024537 | 57 | 0 | 0.0 | 0.0 | 0.00 | 0.03 | 0.02 | 70 | 1028.5 |
| 20260509023035 | 57 | 0 | 0.0 | 0.0 | 0.00 | 0.03 | 0.02 | 70 | 1028.8 |
| 20260509021537 | 56 | 0 | 0.0 | 1.7 | 0.00 | 0.03 | 0.02 | 70 | 1029.1 |
| 20260509020034 | 56 | 207 | 0.9 | 3.5 | 0.00 | 0.03 | 0.02 | 70 | 1029.3 |
| 20260509014536 | 57 | 207 | 0.0 | 5.2 | 0.00 | 0.03 | 0.02 | 70 | 1029.4 |
| 20260509013052 | 55 | 0 | 0.0 | 4.3 | 0.00 | 0.03 | 0.02 | 71 | 1029.5 |
| 20260509011539 | 56 | 0 | 0.0 | 3.5 | 0.00 | 0.03 | 0.02 | 71 | 1029.5 |
| 20260509010037 | 56 | 0 | 0.0 | 2.6 | 0.00 | 0.03 | 0.02 | 71 | 1029.5 |
| 20260509004559 | 55 | 0 | 0.0 | 3.5 | 0.00 | 0.03 | 0.02 | 71 | 1029.4 |
| 20260509003043 | 54 | 0 | 0.0 | 5.2 | 0.00 | 0.03 | 0.02 | 71 | 1029.5 |
| 20260509001542 | 55 | 207 | 0.9 | 3.5 | 0.00 | 0.03 | 0.02 | 71 | 1029.5 |
| 20260509000036 | 54 | 0 | 0.0 | 3.5 | 0.00 | 0.03 | 0.02 | 70 | 1029.5 |
| 20260508234538 | 54 | 205 | 0.0 | 1.7 | 0.00 | 0.03 | 0.02 | 70 | 1029.6 |
| 20260508233037 | 54 | 0 | 0.0 | 1.7 | 0.00 | 0.03 | 0.02 | 70 | 1029.5 |
| 20260508231537 | 54 | 0 | 0.0 | 3.5 | 0.00 | 0.03 | 0.02 | 70 | 1029.5 |
| 20260508230049 | 53 | 0 | 0.0 | 0.9 | 0.00 | 0.03 | 0.02 | 70 | 1029.3 |
| 20260508224537 | 53 | 205 | 0.0 | 1.7 | 0.00 | 0.03 | 0.02 | 70 | 1029.2 |
| 20260508223038 | 53 | 0 | 0.0 | 1.7 | 0.01 | 0.03 | 0.02 | 70 | 1029.1 |
| 20260508221537 | 52 | 0 | 0.0 | 0.0 | 0.00 | 0.03 | 0.01 | 69 | 1029.1 |
| 20260508220041 | 52 | 0 | 0.0 | 0.0 | 0.00 | 0.03 | 0.01 | 69 | 1029.0 |
| 20260508214537 | 52 | 0 | 0.0 | 0.9 | 0.00 | 0.03 | 0.01 | 69 | 1028.9 |
| 20260508213033 | 52 | 0 | 0.0 | 1.7 | 0.00 | 0.02 | 0.00 | 69 | 1028.8 |
| 20260508211536 | 52 | 0 | 0.0 | 0.0 | 0.00 | 0.02 | 0.00 | 69 | 1028.6 |
| 20260508210042 | 52 | 0 | 0.0 | 0.0 | 0.00 | 0.02 | 0.00 | 69 | 1028.6 |
| 20260508204537 | 52 | 0 | 0.0 | 0.0 | 0.00 | 0.02 | 0.00 | 69 | 1028.6 |
| 20260508203037 | 52 | 0 | 0.0 | 0.0 | 0.00 | 0.02 | 0.00 | 69 | 1028.4 |
| 20260508201537 | 52 | 0 | 0.0 | 0.9 | 0.00 | 0.02 | 0.00 | 69 | 1028.2 |
| 20260508200045 | 52 | 0 | 0.0 | 1.7 | 0.00 | 0.02 | 0.00 | 68 | 1028.0 |
| 20260508194535 | 52 | 0 | 0.0 | 2.6 | 0.00 | 0.01 | 0.00 | 68 | 1027.9 |
| 20260508193042 | 52 | 0 | 0.0 | 1.7 | 0.00 | 0.01 | 0.00 | 68 | 1027.9 |
| 20260508191538 | 52 | 0 | 0.0 | 0.0 | 0.00 | 0.01 | 0.00 | 68 | 1027.8 |
| 20260508190048 | 52 | 0 | 0.0 | 0.0 | 0.00 | 0.01 | 0.00 | 68 | 1027.8 |
| 20260508184555 | 52 | 0 | 0.0 | 0.0 | 0.00 | 0.01 | 0.00 | 67 | 1027.7 |
| 20260508183037 | 52 | 0 | 0.0 | 0.0 | 0.00 | 0.01 | 0.00 | 67 | 1027.8 |
| 20260508181550 | 52 | 0 | 0.0 | 1.7 | 0.00 | 0.01 | 0.00 | 67 | 1027.9 |
| 20260508180036 | 52 | 0 | 0.0 | 0.0 | 0.00 | 0.01 | 0.00 | 67 | 1028.0 |
| 20260508174537 | 52 | 0 | 0.0 | 0.0 | 0.00 | 0.01 | 0.00 | 67 | 1028.2 |
| 20260508173038 | 52 | 0 | 0.0 | 0.0 | 0.00 | 0.01 | 0.00 | 67 | 1028.3 |
| 20260508171536 | 52 | 0 | 0.0 | 0.0 | 0.00 | 0.01 | 0.00 | 67 | 1028.3 |
| 20260508170040 | 51 | 0 | 0.0 | 0.0 | 0.00 | 0.01 | 0.00 | 67 | 1028.2 |
| 20260508164545 | 51 | 0 | 0.0 | 0.0 | 0.00 | 0.01 | 0.00 | 66 | 1028.2 |
| 20260508163037 | 51 | 0 | 0.0 | 0.0 | 0.00 | 0.01 | 0.00 | 66 | 1028.1 |
| 20260508161543 | 51 | 0 | 0.0 | 0.0 | 0.00 | 0.01 | 0.00 | 66 | 1028.2 |
| 20260508160037 | 51 | 0 | 0.0 | 0.0 | 0.00 | 0.01 | 0.00 | 66 | 1028.4 |
| 20260508154541 | 51 | 0 | 0.0 | 0.0 | 0.00 | 0.01 | 0.00 | 66 | 1028.3 |
| 20260508153037 | 51 | 0 | 0.0 | 0.0 | 0.00 | 0.01 | 0.00 | 66 | 1028.5 |
| 20260508151535 | 51 | 0 | 0.0 | 0.0 | 0.00 | 0.01 | 0.00 | 66 | 1028.6 |
| 20260508150037 | 51 | 0 | 0.0 | 0.0 | 0.00 | 0.01 | 0.00 | 66 | 1028.6 |
| 20260508144546 | 52 | 0 | 0.0 | 0.0 | 0.00 | 0.01 | 0.00 | 65 | 1028.7 |
| 20260508143041 | 51 | 0 | 0.0 | 0.0 | 0.00 | 0.01 | 0.00 | 65 | 1028.7 |
| 20260508141542 | 51 | 0 | 0.0 | 0.0 | 0.00 | 0.01 | 0.01 | 65 | 1028.8 |
| 20260508140044 | 51 | 0 | 0.0 | 0.0 | 0.00 | 0.01 | 0.01 | 65 | 1028.8 |
| 20260508134540 | 51 | 0 | 0.0 | 1.7 | 0.00 | 0.01 | 0.01 | 65 | 1029.0 |
| 20260508133104 | 52 | 205 | 0.0 | 1.7 | 0.00 | 0.01 | 0.01 | 65 | 1029.1 |
| 20260508131534 | 52 | 0 | 0.0 | 3.5 | 0.00 | 0.01 | 0.01 | 65 | 1029.3 |
| 20260508130040 | 52 | 0 | 0.0 | 0.0 | 0.00 | 0.01 | 0.01 | 65 | 1029.4 |
| 20260508124539 | 52 | 0 | 0.0 | 0.0 | 0.00 | 0.01 | 0.01 | 65 | 1029.5 |
| 20260508123039 | 52 | 0 | 0.0 | 0.0 | 0.00 | 0.01 | 0.01 | 65 | 1029.5 |
| 20260508121538 | 52 | 0 | 0.0 | 3.5 | 0.00 | 0.01 | 0.01 | 65 | 1029.4 |
| 20260508120037 | 52 | 0 | 0.0 | 1.7 | 0.00 | 0.01 | 0.01 | 65 | 1029.4 |
| 20260508114533 | 52 | 0 | 0.0 | 2.6 | 0.00 | 0.01 | 0.01 | 64 | 1029.5 |
| 20260508113050 | 52 | 0 | 0.0 | 2.6 | 0.00 | 0.01 | 0.01 | 64 | 1029.3 |
| 20260508111543 | 52 | 0 | 0.0 | 1.7 | 0.00 | 0.01 | 0.01 | 64 | 1029.3 |
| 20260508110048 | 52 | 0 | 0.0 | 3.5 | 0.00 | 0.01 | 0.01 | 64 | 1029.4 |
| 20260508104539 | 52 | 0 | 0.9 | 3.5 | 0.00 | 0.01 | 0.01 | 64 | 1029.2 |
| 20260508103035 | 52 | 207 | 0.9 | 5.2 | 0.00 | 0.01 | 0.01 | 64 | 1029.2 |
| 20260508101538 | 52 | 0 | 0.0 | 2.6 | 0.00 | 0.01 | 0.01 | 64 | 1029.3 |
| 20260508100037 | 52 | 0 | 0.0 | 3.5 | 0.00 | 0.01 | 0.01 | 64 | 1029.2 |
| 20260508094537 | 53 | 0 | 0.0 | 2.6 | 0.00 | 0.01 | 0.01 | 64 | 1029.3 |
| 20260508093038 | 53 | 207 | 0.0 | 1.7 | 0.00 | 0.01 | 0.01 | 63 | 1029.1 |
| 20260508091542 | 53 | 0 | 0.0 | 3.5 | 0.00 | 0.01 | 0.01 | 63 | 1028.9 |
| 20260508090057 | 53 | 0 | 0.0 | 3.5 | 0.00 | 0.01 | 0.01 | 62 | 1028.9 |
| 20260508084538 | 53 | 209 | 1.7 | 5.2 | 0.00 | 0.01 | 0.01 | 62 | 1028.9 |
| 20260508083040 | 54 | 0 | 0.0 | 2.6 | 0.00 | 0.01 | 0.01 | 61 | 1028.8 |
| 20260508081536 | 54 | 209 | 0.0 | 4.3 | 0.00 | 0.01 | 0.01 | 61 | 1028.7 |
| 20260508080035 | 55 | 0 | 0.0 | 2.6 | 0.00 | 0.01 | 0.01 | 61 | 1028.6 |
| 20260508074542 | 55 | 209 | 0.9 | 5.2 | 0.00 | 0.01 | 0.01 | 61 | 1028.5 |
| 20260508073037 | 56 | 216 | 1.7 | 4.3 | 0.00 | 0.01 | 0.01 | 61 | 1028.4 |
| 20260508071547 | 56 | 216 | 0.9 | 5.2 | 0.00 | 0.01 | 0.01 | 61 | 1028.4 |
| 20260508070040 | 57 | 220 | 1.7 | 5.2 | 0.00 | 0.01 | 0.01 | 61 | 1028.4 |
| 20260508064539 | 57 | 234 | 0.9 | 6.1 | 0.00 | 0.01 | 0.01 | 61 | 1028.4 |
| 20260508063035 | 57 | 244 | 0.9 | 6.1 | 0.00 | 0.01 | 0.01 | 62 | 1028.3 |
| 20260508061538 | 57 | 232 | 1.7 | 5.2 | 0.00 | 0.01 | 0.01 | 62 | 1028.3 |
| 20260508060037 | 57 | 247 | 0.9 | 6.1 | 0.00 | 0.01 | 0.01 | 63 | 1028.2 |
| 20260508054539 | 57 | 203 | 1.7 | 5.2 | 0.00 | 0.01 | 0.01 | 63 | 1028.3 |
| 20260508053058 | 57 | 199 | 1.7 | 6.1 | 0.00 | 0.01 | 0.01 | 62 | 1028.4 |
| 20260508051541 | 58 | 196 | 0.9 | 6.1 | 0.00 | 0.01 | 0.01 | 61 | 1028.3 |
| 20260508050039 | 58 | 197 | 0.9 | 5.2 | 0.00 | 0.01 | 0.01 | 60 | 1028.3 |
| 20260508044537 | 58 | 207 | 0.9 | 6.1 | 0.00 | 0.01 | 0.01 | 61 | 1028.4 |
| 20260508043041 | 58 | 198 | 1.7 | 6.1 | 0.00 | 0.01 | 0.01 | 59 | 1028.4 |
| 20260508041604 | 58 | 198 | 1.7 | 3.5 | 0.00 | 0.01 | 0.01 | 59 | 1028.4 |
| 20260508040046 | 58 | 185 | 1.7 | 7.0 | 0.00 | 0.01 | 0.01 | 59 | 1028.5 |
| 20260508034537 | 56 | 190 | 1.7 | 6.1 | 0.01 | 0.01 | 0.01 | 63 | 1028.7 |
| 20260508033038 | 56 | 192 | 1.7 | 5.2 | 0.01 | 0.01 | 0.01 | 63 | 1028.8 |
| 20260508031539 | 56 | 192 | 0.9 | 4.3 | 0.01 | 0.01 | 0.01 | 64 | 1028.9 |
| 20260508030036 | 56 | 211 | 1.7 | 7.8 | 0.01 | 0.01 | 0.01 | 64 | 1029.2 |